Time;durP1;ratioP1;P1;durP2;ratioP2;P2;SDS_P1;SDS_P2;PMS_P1;PMS_P2;Temp;Humidity;BMP_temperature;BMP_pressure;BME280_temperature;BME280_humidity;BME280_pressure;Samples;Min_cycle;Max_cycle;Signal;HPM_P1;HPM_P2
2022/10/10 00:01:17;;;;;;;4.57;3.07;;;;;;;8.41;100.00;96569.28;6155074;23;20726;-80
2022/10/10 00:03:44;;;;;;;5.50;3.00;;;;;;;8.06;100.00;96524.38;6128771;23;20697;-79
2022/10/10 00:06:12;;;;;;;5.10;2.80;;;;;;;8.35;100.00;96571.31;6103921;23;20442;-79
2022/10/10 00:08:39;;;;;;;4.77;2.67;;;;;;;8.10;100.00;96527.19;6128793;23;20515;-79
2022/10/10 00:11:06;;;;;;;4.13;3.10;;;;;;;8.37;100.00;96571.00;6154704;23;20475;-79
2022/10/10 00:13:33;;;;;;;2.67;2.47;;;;;;;8.04;100.00;96523.16;6128604;23;20801;-79
2022/10/10 00:16:00;;;;;;;5.10;2.73;;;;;;;8.17;100.00;96532.78;6154555;23;20427;-79
2022/10/10 00:18:28;;;;;;;7.17;3.17;;;;;;;8.12;100.00;96535.56;6128023;23;20423;-79
2022/10/10 00:20:54;;;;;;;3.33;2.40;;;;;;;7.93;100.00;96515.50;6103811;23;20434;-79
2022/10/10 00:23:21;;;;;;;3.77;2.90;;;;;;;8.33;100.00;96565.53;6128097;23;20439;-79
2022/10/10 00:25:49;;;;;;;8.50;2.77;;;;;;;8.37;100.00;96568.34;6128174;23;20614;-79
2022/10/10 00:28:16;;;;;;;3.37;2.73;;;;;;;8.32;100.00;96558.72;6153913;23;20431;-79
2022/10/10 00:30:44;;;;;;;4.60;3.40;;;;;;;8.23;100.00;96556.03;6127850;23;20427;-79
2022/10/10 00:33:11;;;;;;;3.53;2.50;;;;;;;7.91;100.00;96519.53;6103671;23;20662;-79
2022/10/10 00:35:38;;;;;;;5.07;2.53;;;;;;;8.16;100.00;96557.59;6103775;23;20839;-79
2022/10/10 00:38:04;;;;;;;3.00;2.70;;;;;;;8.19;100.00;96559.59;6154393;23;20381;-79
2022/10/10 00:40:31;;;;;;;3.13;2.70;;;;;;;8.21;100.00;96560.06;6128596;23;20384;-79
2022/10/10 00:42:59;;;;;;;4.73;2.73;;;;;;;8.21;100.00;96549.53;6128274;23;20861;-79
2022/10/10 00:45:41;;;;;;;2.77;2.53;;;;;;;7.94;100.00;96534.72;6127971;23;20978;-79
2022/10/10 00:48:24;;;;;;;3.10;2.27;;;;;;;7.69;100.00;96491.41;6128112;23;20408;-79
2022/10/10 00:50:57;;;;;;;3.70;3.40;;;;;;;8.04;100.00;96550.25;6128323;23;20929;-79
2022/10/10 00:53:37;;;;;;;3.63;2.80;;;;;;;7.89;100.00;96516.44;6154099;23;20816;-79
2022/10/10 00:56:05;;;;;;;4.50;2.90;;;;;;;8.07;100.00;96549.63;6128506;23;20382;-79
2022/10/10 00:58:33;;;;;;;4.53;2.53;;;;;;;8.11;100.00;96553.22;6103600;23;20448;-79
2022/10/10 01:01:00;;;;;;;3.67;3.30;;;;;;;7.84;100.00;96517.31;6153991;23;20411;-79
2022/10/10 01:03:27;;;;;;;5.10;2.57;;;;;;;7.63;100.00;96496.03;6128284;23;20752;-79
2022/10/10 01:05:53;;;;;;;7.10;3.10;;;;;;;7.91;100.00;96536.09;6128084;23;20404;-79
2022/10/10 01:08:20;;;;;;;4.37;2.80;;;;;;;7.76;100.00;96512.03;6128022;23;20434;-79
2022/10/10 01:11:13;;;;;;;4.13;2.93;;;;;;;7.96;100.00;96548.34;6154458;23;20384;-79
2022/10/10 01:13:50;;;;;;;4.53;2.60;;;;;;;7.95;100.00;96541.53;6154138;23;20388;-79
2022/10/10 01:16:28;;;;;;;3.13;2.53;;;;;;;7.78;100.00;96515.13;6128049;23;20423;-79
2022/10/10 01:19:34;;;;;;;2.83;2.53;;;;;;;7.95;100.00;96536.28;6153859;23;20392;-79
2022/10/10 01:22:22;;;;;;;5.10;2.47;;;;;;;7.88;100.00;96534.09;6084163;23;20400;-79
2022/10/10 01:25:37;;;;;;;4.70;2.33;;;;;;;7.75;100.00;96521.03;6127982;23;20808;-80
2022/10/10 01:28:12;;;;;;;4.23;3.00;;;;;;;7.86;100.00;96527.53;6127738;23;20433;-79
2022/10/10 01:30:40;;;;;;;3.20;2.90;;;;;;;7.48;100.00;96456.97;6128037;23;20407;-79
2022/10/10 01:33:15;;;;;;;3.57;2.93;;;;;;;7.87;100.00;96519.34;6127967;23;20384;-79
2022/10/10 01:35:47;;;;;;;3.43;2.87;;;;;;;7.90;100.00;96520.63;6127671;23;20406;-79
2022/10/10 01:38:35;;;;;;;3.03;2.50;;;;;;;7.84;100.00;96512.06;6103257;23;20415;-79
2022/10/10 01:41:01;;;;;;;4.50;3.83;;;;;;;7.84;100.00;96517.31;6128040;23;20755;-79
2022/10/10 01:43:29;;;;;;;5.10;3.00;;;;;;;7.74;100.00;96506.28;6153586;23;20871;-79
2022/10/10 01:45:56;;;;;;;3.83;2.90;;;;;;;7.74;100.00;96501.78;6153648;23;20384;-79
2022/10/10 01:48:30;;;;;;;4.00;3.60;;;;;;;7.59;100.00;96479.28;6107153;23;20562;-79
2022/10/10 01:51:03;;;;;;;3.30;2.87;;;;;;;7.78;100.00;96512.50;6133633;23;20426;-78
2022/10/10 01:53:42;;;;;;;3.63;3.20;;;;;;;7.69;100.00;96489.56;6110078;23;20482;-79
2022/10/10 01:56:17;;;;;;;5.10;3.67;;;;;;;7.68;100.00;96490.63;6133351;23;20400;-78
2022/10/10 01:58:58;;;;;;;4.13;3.33;;;;;;;7.59;100.00;96481.13;6109539;23;20764;-79
2022/10/10 02:01:46;;;;;;;5.93;3.27;;;;;;;7.68;100.00;96484.59;6159696;23;20375;-79
2022/10/10 02:04:20;;;;;;;4.50;3.03;;;;;;;7.51;100.00;96452.94;6159242;23;20830;-79
2022/10/10 02:06:54;;;;;;;4.87;3.00;;;;;;;7.59;100.00;96473.25;6128787;23;20407;-79
2022/10/10 02:09:28;;;;;;;2.97;2.77;;;;;;;7.48;100.00;96451.72;6153161;23;20463;-79
2022/10/10 02:11:58;;;;;;;2.43;2.23;;;;;;;7.51;100.00;96458.22;6127639;23;20368;-79
2022/10/10 02:14:32;;;;;;;5.33;3.03;;;;;;;7.80;100.00;96497.19;6102764;23;20391;-79
2022/10/10 02:17:01;;;;;;;3.63;2.43;;;;;;;7.52;100.00;96454.50;6153491;23;20827;-79
2022/10/10 02:19:29;;;;;;;5.43;3.57;;;;;;;7.43;100.00;96456.31;6153366;23;20417;-79
2022/10/10 02:21:57;;;;;;;4.10;3.20;;;;;;;7.50;100.00;96454.81;6127500;23;20725;-79
2022/10/10 02:24:24;;;;;;;3.47;2.90;;;;;;;7.71;100.00;96490.03;6102785;23;20564;-79
2022/10/10 02:27:17;;;;;;;5.40;3.30;;;;;;;7.54;100.00;96468.91;6127569;23;20388;-79
2022/10/10 02:29:46;;;;;;;3.70;3.40;;;;;;;7.31;100.00;96430.56;6153444;23;20432;-79
2022/10/10 02:32:23;;;;;;;4.77;2.70;;;;;;;7.37;100.00;96443.28;6153954;23;20730;-79
2022/10/10 02:34:54;;;;;;;4.03;3.10;;;;;;;7.53;100.00;96475.25;6129616;23;20702;-79
2022/10/10 02:37:21;;;;;;;4.00;3.60;;;;;;;7.26;100.00;96428.06;6155360;23;20455;-79
2022/10/10 02:39:52;;;;;;;5.70;3.10;;;;;;;7.47;100.00;96460.66;6155159;23;20743;-79
2022/10/10 02:42:21;;;;;;;5.50;2.73;;;;;;;7.30;100.00;96442.16;6129104;23;20388;-79
2022/10/10 02:44:48;;;;;;;4.77;2.63;;;;;;;7.06;100.00;96416.19;6129015;23;20755;-79
2022/10/10 02:47:15;;;;;;;3.33;3.00;;;;;;;7.28;100.00;96450.34;6155415;23;20399;-79
2022/10/10 02:49:42;;;;;;;3.50;3.03;;;;;;;7.23;100.00;96437.34;6104703;23;20440;-79
2022/10/10 02:52:11;;;;;;;4.20;2.80;;;;;;;7.31;100.00;96438.44;6128843;23;20416;-79
2022/10/10 02:54:38;;;;;;;3.93;2.70;;;;;;;7.22;100.00;96435.78;6104465;23;20486;-79
2022/10/10 02:57:05;;;;;;;5.83;2.90;;;;;;;7.13;100.00;96436.81;6129132;23;20750;-79
2022/10/10 02:59:32;;;;;;;3.50;3.20;;;;;;;7.36;100.00;96459.38;6104849;23;20416;-79
2022/10/10 03:01:58;;;;;;;4.20;2.60;;;;;;;7.24;100.00;96438.91;6129878;23;20888;-79
2022/10/10 03:04:25;;;;;;;5.60;2.83;;;;;;;7.39;100.00;96456.13;6105636;23;20902;-79
2022/10/10 03:06:52;;;;;;;3.40;3.00;;;;;;;6.96;100.00;96417.25;6129548;23;20395;-79
2022/10/10 03:09:19;;;;;;;4.03;2.90;;;;;;;7.24;100.00;96457.31;6155464;23;20437;-79
2022/10/10 03:11:45;;;;;;;3.20;2.37;;;;;;;7.25;100.00;96450.19;6155992;23;20406;-79
2022/10/10 03:14:12;;;;;;;4.10;2.80;;;;;;;7.01;100.00;96414.47;6130461;23;20384;-79
2022/10/10 03:16:39;;;;;;;4.80;2.53;;;;;;;7.21;100.00;96454.47;6133026;23;20407;-79
2022/10/10 03:19:07;;;;;;;3.33;2.30;;;;;;;7.31;100.00;96462.91;6132215;23;20848;-79
2022/10/10 03:21:34;;;;;;;3.87;2.77;;;;;;;7.09;100.00;96447.94;6109135;23;20476;-79
2022/10/10 03:24:01;;;;;;;8.17;3.30;;;;;;;7.13;100.00;96448.09;6108756;23;20482;-79
2022/10/10 03:26:28;;;;;;;5.70;3.17;;;;;;;7.17;100.00;96458.78;6133068;23;20499;-79
2022/10/10 03:28:54;;;;;;;9.30;2.83;;;;;;;7.03;100.00;96437.84;6107694;23;20436;-79
2022/10/10 03:31:21;;;;;;;3.13;2.70;;;;;;;7.31;100.00;96477.91;6133048;23;20392;-79
2022/10/10 03:33:48;;;;;;;5.23;3.00;;;;;;;7.17;100.00;96459.56;6158968;23;20420;-79
2022/10/10 03:36:14;;;;;;;5.93;2.90;;;;;;;7.13;100.00;96458.63;6135272;23;20459;-79
2022/10/10 03:38:41;;;;;;;2.73;2.53;;;;;;;7.00;100.00;96439.22;6110695;23;20408;-79
2022/10/10 03:41:07;;;;;;;4.57;3.30;;;;;;;7.03;100.00;96443.88;6156413;23;20388;-79
2022/10/10 03:43:34;;;;;;;3.63;2.83;;;;;;;7.07;100.00;96457.19;6154960;23;20384;-79
2022/10/10 03:46:01;;;;;;;4.20;3.00;;;;;;;7.05;100.00;96446.19;6104273;23;20392;-79
2022/10/10 03:48:27;;;;;;;3.83;2.90;;;;;;;7.01;100.00;96437.34;6104617;23;20443;-79
2022/10/10 03:50:54;;;;;;;2.67;2.20;;;;;;;6.71;100.00;96400.22;6128658;23;20411;-79
2022/10/10 03:53:21;;;;;;;5.90;2.80;;;;;;;6.85;100.00;96444.06;6128558;23;20412;-79
2022/10/10 03:55:48;;;;;;;3.73;2.70;;;;;;;6.87;100.00;96439.28;6128668;23;20408;-79
2022/10/10 03:58:14;;;;;;;3.03;2.77;;;;;;;7.02;100.00;96473.09;6154848;23;20410;-79
2022/10/10 04:00:58;;;;;;;3.40;2.67;;;;;;;6.96;100.00;96459.28;6105002;23;20434;-79
2022/10/10 04:03:25;;;;;;;3.67;2.97;;;;;;;6.82;100.00;96459.34;6128273;23;20434;-79
2022/10/10 04:05:53;;;;;;;3.73;2.60;;;;;;;6.70;100.00;96453.06;6128212;23;20403;-79
2022/10/10 04:08:20;;;;;;;4.20;3.27;;;;;;;6.42;100.00;96407.75;6103910;23;20957;-79
2022/10/10 04:10:48;;;;;;;4.10;3.10;;;;;;;6.61;100.00;96442.50;6154787;23;20467;-79
2022/10/10 04:13:16;;;;;;;4.07;3.67;;;;;;;6.60;100.00;96438.31;6104296;23;20414;-79
2022/10/10 04:15:43;;;;;;;4.97;3.27;;;;;;;6.70;100.00;96459.09;6104532;23;20399;-79
2022/10/10 04:18:10;;;;;;;3.63;3.20;;;;;;;6.53;100.00;96437.94;6154688;23;20420;-79
2022/10/10 04:20:37;;;;;;;5.30;2.77;;;;;;;6.41;100.00;96430.59;6104750;23;20412;-79
2022/10/10 04:23:03;;;;;;;7.60;3.83;;;;;;;6.47;100.00;96439.91;6128684;23;20423;-79
2022/10/10 04:25:30;;;;;;;4.87;3.00;;;;;;;6.27;100.00;96408.06;6128705;23;20395;-79
2022/10/10 04:27:57;;;;;;;6.77;3.40;;;;;;;6.53;100.00;96440.56;6104997;23;20439;-79
2022/10/10 04:30:31;;;;;;;3.53;3.23;;;;;;;6.32;100.00;96421.88;6141885;23;20403;-78
2022/10/10 04:32:58;;;;;;;3.87;3.17;;;;;;;6.37;100.00;96420.97;6167701;23;20376;-79
2022/10/10 04:35:25;;;;;;;4.33;3.03;;;;;;;6.10;100.00;96374.56;6167063;23;20423;-79
2022/10/10 04:37:52;;;;;;;6.97;3.70;;;;;;;6.56;100.00;96436.59;6142361;23;20391;-79
2022/10/10 04:40:19;;;;;;;6.40;3.40;;;;;;;6.34;100.00;96419.72;6140323;23;20408;-79
2022/10/10 04:42:52;;;;;;;4.70;3.77;;;;;;;6.40;100.00;96439.53;6136475;23;20374;-79
2022/10/10 04:45:19;;;;;;;3.60;3.27;;;;;;;6.31;100.00;96416.91;6128411;23;20474;-78
2022/10/10 04:47:45;;;;;;;3.33;3.13;;;;;;;6.44;100.00;96450.25;6153892;23;20389;-79
2022/10/10 04:50:12;;;;;;;4.83;2.87;;;;;;;6.42;100.00;96452.38;6103244;23;20439;-79
2022/10/10 04:52:38;;;;;;;6.00;3.20;;;;;;;6.05;100.00;96419.31;6154036;23;20821;-79
2022/10/10 04:55:05;;;;;;;6.07;3.27;;;;;;;5.97;100.00;96415.50;6127682;23;20434;-79
2022/10/10 04:57:32;;;;;;;4.67;3.07;;;;;;;5.96;100.00;96424.44;6153552;23;20383;-79
2022/10/10 04:59:59;;;;;;;7.57;2.87;;;;;;;6.21;100.00;96454.66;6103797;23;20412;-79
2022/10/10 05:02:25;;;;;;;3.57;3.23;;;;;;;6.15;100.00;96446.13;6103490;23;20870;-79
2022/10/10 05:04:52;;;;;;;5.70;3.13;;;;;;;6.18;100.00;96465.75;6153833;23;20423;-78
2022/10/10 05:07:18;;;;;;;6.17;3.70;;;;;;;6.19;100.00;96472.56;6103741;23;20405;-79
2022/10/10 05:09:45;;;;;;;4.73;3.20;;;;;;;5.67;100.00;96416.88;6127779;23;20522;-79
2022/10/10 05:12:12;;;;;;;3.27;2.97;;;;;;;5.77;100.00;96414.06;6153791;23;20471;-79
2022/10/10 05:14:38;;;;;;;7.60;3.97;;;;;;;5.72;100.00;96395.00;6103254;23;20404;-79
2022/10/10 05:17:10;;;;;;;5.10;3.80;;;;;;;5.99;100.00;96429.09;6153549;23;20423;-79
2022/10/10 05:19:36;;;;;;;5.73;3.30;;;;;;;5.87;100.00;96426.16;6153280;23;20478;-79
2022/10/10 05:22:03;;;;;;;3.73;3.20;;;;;;;5.94;100.00;96426.59;6153428;23;20497;-79
2022/10/10 05:24:29;;;;;;;7.13;3.13;;;;;;;6.21;100.00;96471.19;6103237;23;20829;-79
2022/10/10 05:26:56;;;;;;;5.10;4.60;;;;;;;6.05;100.00;96422.69;6127222;23;20746;-79
2022/10/10 05:29:23;;;;;;;3.90;3.50;;;;;;;6.29;100.00;96448.72;6103125;23;20951;-79
2022/10/10 05:31:49;;;;;;;4.30;3.07;;;;;;;6.11;100.00;96433.84;6126845;23;20404;-79
2022/10/10 05:34:16;;;;;;;3.60;2.97;;;;;;;6.18;100.00;96450.00;6128721;23;20410;-79
2022/10/10 05:36:43;;;;;;;6.40;2.90;;;;;;;6.08;100.00;96418.72;6128234;23;20423;-79
2022/10/10 05:39:09;;;;;;;3.23;2.90;;;;;;;6.15;100.00;96434.84;6128867;23;20495;-79
2022/10/10 05:41:36;;;;;;;4.90;4.00;;;;;;;6.21;100.00;96458.06;6128564;23;20417;-79
2022/10/10 05:44:03;;;;;;;4.23;3.50;;;;;;;6.05;100.00;96438.44;6104266;23;20411;-79
2022/10/10 05:46:29;;;;;;;3.47;3.17;;;;;;;5.95;100.00;96435.25;6104536;23;20969;-79
2022/10/10 05:48:56;;;;;;;6.47;3.23;;;;;;;5.90;100.00;96421.16;6154666;23;20424;-79
2022/10/10 05:51:23;;;;;;;5.13;3.40;;;;;;;6.08;100.00;96447.56;6127927;23;20408;-79
2022/10/10 05:53:49;;;;;;;3.73;3.37;;;;;;;6.08;100.00;96450.19;6131694;23;20388;-80
2022/10/10 05:56:16;;;;;;;5.17;3.93;;;;;;;5.94;100.00;96423.97;6131018;23;20433;-80
2022/10/10 05:58:44;;;;;;;4.27;3.57;;;;;;;6.22;100.00;96467.47;6130823;23;20407;-79
2022/10/10 06:01:11;;;;;;;5.13;3.50;;;;;;;5.81;100.00;96411.63;6157373;23;20395;-80
2022/10/10 06:03:37;;;;;;;3.90;3.50;;;;;;;5.68;100.00;96379.09;6157971;23;20391;-80
2022/10/10 06:06:04;;;;;;;3.97;2.73;;;;;;;6.40;100.00;96478.13;6130986;23;20409;-80
2022/10/10 06:08:32;;;;;;;4.03;3.17;;;;;;;6.31;100.00;96454.44;6132069;23;20830;-80
2022/10/10 06:11:06;;;;;;;3.70;3.40;;;;;;;6.50;100.00;96483.19;6133902;23;20738;-80
2022/10/10 06:13:33;;;;;;;7.27;3.20;;;;;;;6.27;100.00;96434.31;6133631;23;20416;-79
2022/10/10 06:16:00;;;;;;;4.43;2.60;;;;;;;6.63;100.00;96481.59;6133529;23;20402;-79
2022/10/10 06:18:26;;;;;;;4.47;3.60;;;;;;;6.44;100.00;96463.38;6133171;23;20404;-80
2022/10/10 06:20:53;;;;;;;12.30;6.37;;;;;;;6.28;100.00;96443.72;6133374;23;20423;-80
2022/10/10 06:23:20;;;;;;;4.30;3.13;;;;;;;6.30;100.00;96444.25;6112664;23;20427;-79
2022/10/10 06:25:50;;;;;;;3.90;2.90;;;;;;;6.56;100.00;96486.50;6165076;23;20390;-79
2022/10/10 06:28:17;;;;;;;4.13;2.90;;;;;;;6.18;100.00;96424.53;6139887;23;20491;-79
2022/10/10 06:30:47;;;;;;;3.13;2.83;;;;;;;6.63;100.00;96490.25;6115689;23;20507;-79
2022/10/10 06:33:14;;;;;;;8.63;4.33;;;;;;;6.52;100.00;96467.91;6132806;23;20399;-79
2022/10/10 06:35:43;;;;;;;5.10;3.27;;;;;;;6.41;100.00;96462.13;6107720;23;20435;-79
2022/10/10 06:38:10;;;;;;;4.00;3.33;;;;;;;6.61;100.00;96497.66;6132233;23;20388;-79
2022/10/10 06:40:38;;;;;;;4.40;3.67;;;;;;;6.63;100.00;96497.34;6131638;23;20791;-79
2022/10/10 06:43:10;;;;;;;6.43;3.50;;;;;;;6.22;100.00;96432.56;6132078;23;20422;-80
2022/10/10 06:45:39;;;;;;;5.30;3.50;;;;;;;6.61;100.00;96492.41;6132138;23;20831;-80
2022/10/10 06:48:07;;;;;;;5.10;3.63;;;;;;;6.56;100.00;96484.66;6158031;23;20901;-80
2022/10/10 06:50:34;;;;;;;4.13;2.83;;;;;;;6.32;100.00;96457.84;6131860;23;21052;-80
2022/10/10 06:53:01;;;;;;;7.17;3.57;;;;;;;6.58;100.00;96481.72;6132113;23;20425;-80
2022/10/10 06:55:27;;;;;;;4.50;4.10;;;;;;;6.73;100.00;96503.16;6132057;23;20400;-79
2022/10/10 06:57:54;;;;;;;9.03;4.73;;;;;;;6.77;100.00;96503.34;6108234;23;20404;-79
2022/10/10 07:00:21;;;;;;;11.30;3.77;;;;;;;6.68;100.00;96471.78;6132423;23;20471;-80
2022/10/10 07:02:47;;;;;;;5.03;3.40;;;;;;;6.84;100.00;96490.59;6108194;23;20412;-80
2022/10/10 07:05:16;;;;;;;9.40;3.93;;;;;;;7.03;100.00;96504.31;6132294;23;20526;-79
2022/10/10 07:07:44;;;;;;;5.17;4.33;;;;;;;7.01;100.00;96503.84;6131891;23;20893;-80
2022/10/10 07:10:13;;;;;;;7.80;3.67;;;;;;;7.35;100.00;96502.53;6131754;23;20518;-79
2022/10/10 07:12:40;;;;;;;17.23;3.33;;;;;;;7.24;100.00;96465.19;6132380;23;20415;-80
2022/10/10 07:15:11;;;;;;;4.67;3.90;;;;;;;7.19;100.00;96462.66;6133057;23;20380;-80
2022/10/10 07:17:37;;;;;;;6.80;3.43;;;;;;;7.10;100.00;96452.13;6132301;23;20487;-80
2022/10/10 07:20:05;;;;;;;6.07;3.37;;;;;;;7.45;100.00;96496.22;6131345;23;20466;-79
2022/10/10 07:22:32;;;;;;;3.57;2.93;;;;;;;7.71;100.00;96513.69;6158209;23;20415;-80
2022/10/10 07:24:59;;;;;;;7.13;4.57;;;;;;;7.11;100.00;96442.38;6132043;23;20499;-80
2022/10/10 07:27:25;;;;;;;6.23;4.40;;;;;;;7.55;100.00;96515.19;6132151;23;20405;-80
2022/10/10 07:29:52;;;;;;;5.70;4.17;;;;;;;7.33;100.00;96452.84;6107909;23;20446;-79
2022/10/10 07:32:19;;;;;;;4.27;3.60;;;;;;;7.39;100.00;96466.66;6131775;23;20757;-79
2022/10/10 07:34:45;;;;;;;4.60;3.90;;;;;;;7.76;100.00;96535.72;6108075;23;20498;-80
2022/10/10 07:37:12;;;;;;;5.97;3.53;;;;;;;7.58;100.00;96493.50;6107649;23;20412;-79
2022/10/10 07:39:39;;;;;;;6.93;4.30;;;;;;;6.97;100.00;96403.03;6158126;23;20400;-79
2022/10/10 07:42:05;;;;;;;6.03;4.87;;;;;;;7.88;100.00;96531.44;6132666;23;20720;-79
2022/10/10 07:44:32;;;;;;;8.17;5.50;;;;;;;7.97;100.00;96534.88;6132215;23;20494;-80
2022/10/10 07:47:00;;;;;;;15.90;8.60;;;;;;;7.82;100.00;96489.75;6158771;23;20388;-80
2022/10/10 07:49:27;;;;;;;8.33;4.20;;;;;;;8.20;100.00;96524.28;6132196;23;20479;-79
2022/10/10 07:51:54;;;;;;;6.73;5.00;;;;;;;8.12;100.00;96517.88;6131954;23;20519;-79
2022/10/10 07:54:28;;;;;;;5.37;4.30;;;;;;;8.28;100.00;96550.66;6157864;23;20374;-80
2022/10/10 07:56:55;;;;;;;6.93;4.50;;;;;;;8.27;100.00;96517.47;6132015;23;20484;-80
2022/10/10 07:59:22;;;;;;;5.00;4.13;;;;;;;7.83;100.00;96478.91;6108119;23;20519;-80
2022/10/10 08:01:49;;;;;;;7.60;4.80;;;;;;;8.20;100.00;96511.09;6158455;23;20734;-79
2022/10/10 08:04:16;;;;;;;9.47;4.23;;;;;;;8.04;100.00;96502.09;6107767;23;20404;-79
2022/10/10 08:06:43;;;;;;;11.43;6.30;;;;;;;8.12;100.00;96531.06;6132727;23;20807;-80
2022/10/10 08:09:10;;;;;;;12.10;7.23;;;;;;;7.93;100.00;96489.19;6108172;23;20427;-80
2022/10/10 08:11:36;;;;;;;6.40;4.70;;;;;;;8.33;100.00;96538.41;6107585;23;20396;-80
2022/10/10 08:14:03;;;;;;;6.30;5.17;;;;;;;8.17;100.00;96517.00;6158848;23;20395;-79
2022/10/10 08:16:30;;;;;;;6.97;4.37;;;;;;;8.50;100.00;96526.06;6158327;23;20490;-80
2022/10/10 08:18:57;;;;;;;4.90;4.40;;;;;;;8.06;100.00;96490.16;6158547;23;20784;-80
2022/10/10 08:21:24;;;;;;;5.80;3.67;;;;;;;8.41;100.00;96521.88;6132672;23;20444;-80
2022/10/10 08:23:50;;;;;;;5.90;3.60;;;;;;;8.21;100.00;96492.38;6133088;23;20380;-80
2022/10/10 08:26:18;;;;;;;4.73;4.13;;;;;;;8.29;100.00;96478.44;6108993;23;20410;-80
2022/10/10 08:28:47;;;;;;;4.33;3.30;;;;;;;8.67;100.00;96527.97;6132824;23;20730;-80
2022/10/10 08:31:17;;;;;;;5.40;4.50;;;;;;;8.94;100.00;96549.84;6108132;23;20439;-80
2022/10/10 08:33:45;;;;;;;7.00;4.37;;;;;;;8.46;100.00;96484.84;6133414;23;20410;-80
2022/10/10 08:36:14;;;;;;;4.27;3.40;;;;;;;8.36;100.00;96477.25;6133155;23;20391;-80
2022/10/10 08:38:42;;;;;;;5.53;3.70;;;;;;;8.92;100.00;96529.06;6108310;23;20478;-79
2022/10/10 08:41:33;;;;;;;5.80;4.43;;;;;;;9.31;100.00;96543.97;6159037;23;20391;-80
2022/10/10 08:44:39;;;;;;;5.90;3.80;;;;;;;9.34;100.00;96543.31;6108325;23;20396;-80
2022/10/10 08:47:14;;;;;;;9.50;4.50;;;;;;;9.42;100.00;96537.28;6132095;23;20515;-80
2022/10/10 08:50:02;;;;;;;4.60;3.73;;;;;;;9.72;100.00;96547.91;6158313;23;20515;-80
2022/10/10 08:53:01;;;;;;;6.80;4.70;;;;;;;9.94;100.00;96546.94;6108379;23;20419;-79
2022/10/10 08:55:33;;;;;;;6.60;4.30;;;;;;;9.90;100.00;96544.16;6104584;23;20420;-80
2022/10/10 08:58:13;;;;;;;5.47;4.00;;;;;;;9.73;100.00;96501.94;6132414;23;20731;-79
2022/10/10 09:01:12;;;;;;;4.63;4.17;;;;;;;9.90;100.00;96528.31;6133164;23;20365;-80
2022/10/10 09:03:49;;;;;;;4.03;3.73;;;;;;;10.31;100.00;96538.25;6159382;23;20819;-80
2022/10/10 09:06:41;;;;;;;6.33;3.77;;;;;;;10.53;100.00;96541.72;6133792;23;20392;-80
2022/10/10 09:09:26;;;;;;;4.20;2.40;;;;;;;10.70;100.00;96548.78;6113957;23;20426;-80
2022/10/10 09:12:14;;;;;;;7.27;3.80;;;;;;;10.59;100.00;96522.72;6141740;23;20400;-80
2022/10/10 09:15:19;;;;;;;8.53;4.57;;;;;;;10.89;100.00;96552.53;6167523;23;20364;-79
2022/10/10 09:18:03;;;;;;;3.93;3.20;;;;;;;11.11;100.00;96540.84;6122777;23;20399;-79
2022/10/10 09:21:05;;;;;;;7.10;3.67;;;;;;;11.24;100.00;96546.97;6142190;23;20420;-80
2022/10/10 09:23:44;;;;;;;6.97;4.17;;;;;;;11.28;100.00;96547.88;6167300;23;20364;-79
2022/10/10 09:26:13;;;;;;;5.97;4.37;;;;;;;11.28;100.00;96502.09;6141647;23;20419;-80
2022/10/10 09:28:45;;;;;;;9.93;4.50;;;;;;;11.43;100.00;96502.25;6111544;23;20466;-80
2022/10/10 09:31:27;;;;;;;6.73;4.63;;;;;;;11.61;100.00;96541.81;6107723;23;20443;-80
2022/10/10 09:34:04;;;;;;;8.63;7.73;;;;;;;11.38;100.00;96497.19;6107476;23;20399;-80
2022/10/10 09:36:34;;;;;;;7.93;4.63;;;;;;;11.56;100.00;96516.31;6132158;23;20450;-80
2022/10/10 09:39:37;;;;;;;6.63;4.63;;;;;;;11.78;100.00;96542.41;6131737;23;20482;-80
2022/10/10 09:42:12;;;;;;;8.00;4.70;;;;;;;11.66;100.00;96478.81;6117823;23;20481;-80
2022/10/10 09:44:41;;;;;;;6.57;5.20;;;;;;;11.98;100.00;96537.38;6134501;23;20518;-81
2022/10/10 09:47:16;;;;;;;7.90;5.10;;;;;;;11.75;100.00;96519.22;6134268;23;20400;-80
2022/10/10 09:49:43;;;;;;;7.10;5.37;;;;;;;11.44;100.00;96456.16;6160737;23;20489;-80
2022/10/10 09:52:24;;;;;;;8.67;5.33;;;;;;;12.02;100.00;96541.72;6110282;23;20430;-80
2022/10/10 09:54:56;;;;;;;7.60;4.50;;;;;;;11.94;100.00;96529.31;6134577;23;20427;-80
2022/10/10 09:57:27;;;;;;;9.97;8.47;;;;;;;11.67;100.00;96496.25;6134523;23;20459;-80
2022/10/10 09:59:54;;;;;;;9.40;4.60;;;;;;;11.51;100.00;96477.56;6134518;23;20399;-80
2022/10/10 10:02:23;;;;;;;5.37;4.43;;;;;;;12.01;100.00;96553.41;6134067;23;20503;-80
2022/10/10 10:04:51;;;;;;;8.63;5.07;;;;;;;11.78;100.00;96493.97;6109952;23;20438;-80
2022/10/10 10:07:19;;;;;;;4.60;4.07;;;;;;;12.16;100.00;96537.97;6160114;23;20457;-80
2022/10/10 10:09:49;;;;;;;7.97;4.93;;;;;;;12.20;100.00;96515.00;6133701;23;20475;-80
2022/10/10 10:12:22;;;;;;;5.07;4.60;;;;;;;12.24;100.00;96510.56;6133105;23;20490;-80
2022/10/10 10:14:51;;;;;;;8.27;7.33;;;;;;;12.42;100.00;96549.78;6109799;23;20431;-80
2022/10/10 10:17:22;;;;;;;10.17;9.13;;;;;;;12.46;100.00;96535.88;6134035;23;20747;-80
2022/10/10 10:19:48;;;;;;;7.33;4.93;;;;;;;12.48;100.00;96550.34;6133124;23;20538;-81
2022/10/10 10:22:21;;;;;;;4.77;4.37;;;;;;;12.43;100.00;96550.56;6133856;23;20889;-80
2022/10/10 10:24:53;;;;;;;5.43;4.90;;;;;;;12.43;100.00;96555.88;6160287;23;20371;-80
2022/10/10 10:27:22;;;;;;;6.20;5.00;;;;;;;12.36;100.00;96555.63;6133889;23;20431;-80
2022/10/10 10:29:54;;;;;;;9.60;8.80;;;;;;;12.38;100.00;96548.13;6109369;23;20960;-80
2022/10/10 10:32:53;;;;;;;4.60;4.20;;;;;;;12.20;100.00;96522.94;6133430;23;20398;-80
2022/10/10 10:35:43;;;;;;;5.57;5.00;;;;;;;12.30;100.00;96525.16;6159384;23;20461;-80
2022/10/10 10:38:37;;;;;;;5.03;4.53;;;;;;;12.28;100.00;96493.66;6133794;23;20400;-81
2022/10/10 10:41:22;;;;;;;5.10;4.47;;;;;;;12.73;100.00;96561.69;6159797;23;20455;-80
2022/10/10 10:44:09;;;;;;;8.33;5.00;;;;;;;12.71;100.00;96529.44;6159910;23;20471;-80
2022/10/10 10:47:08;;;;;;;6.10;4.63;;;;;;;12.86;100.00;96557.16;6162570;23;20369;-80
2022/10/10 10:49:39;;;;;;;4.30;3.90;;;;;;;13.01;100.00;96551.91;6135185;23;20435;-80
2022/10/10 10:52:20;;;;;;;6.13;4.70;;;;;;;12.88;100.00;96544.31;6132577;23;20403;-80
2022/10/10 10:55:21;;;;;;;5.10;4.60;;;;;;;12.91;100.00;96541.00;6133269;23;20400;-80
2022/10/10 10:58:06;;;;;;;4.33;3.93;;;;;;;12.84;100.00;96554.06;6133579;23;20536;-80
2022/10/10 11:01:09;;;;;;;3.77;3.50;;;;;;;12.51;100.00;96528.44;6159780;23;20690;-79
2022/10/10 11:04:11;;;;;;;6.63;4.10;;;;;;;12.40;100.00;96530.78;6133464;23;20440;-80
2022/10/10 11:07:32;;;;;;;4.83;3.83;;;;;;;12.39;100.00;96521.28;6132984;23;20404;-80
2022/10/10 11:10:37;;;;;;;4.30;3.90;;;;;;;12.88;100.00;96552.28;6133499;23;20407;-81
2022/10/10 11:13:39;;;;;;;7.90;4.30;;;;;;;12.96;100.00;96525.63;6108836;23;20751;-80
2022/10/10 11:16:45;;;;;;;4.87;4.37;;;;;;;13.36;100.00;96556.72;6093076;23;20399;-80
2022/10/10 11:19:41;;;;;;;8.30;4.63;;;;;;;13.64;100.00;96558.59;6108440;23;20463;-80
2022/10/10 11:22:13;;;;;;;6.13;3.90;;;;;;;13.52;100.00;96554.09;6108826;23;20384;-80
2022/10/10 11:24:55;;;;;;;4.87;4.13;;;;;;;13.89;100.00;96560.78;6132377;23;20487;-80
2022/10/10 11:27:45;;;;;;;4.30;4.00;;;;;;;13.94;100.00;96556.31;6132878;23;20477;-81
2022/10/10 11:30:34;;;;;;;5.63;4.17;;;;;;;13.80;100.00;96533.56;6159014;23;20530;-80
2022/10/10 11:33:10;;;;;;;5.33;4.87;;;;;;;14.31;100.00;96562.94;6159409;23;20455;-80
2022/10/10 11:36:09;;;;;;;5.07;4.43;;;;;;;14.64;100.00;96562.56;6132829;23;20435;-80
2022/10/10 11:38:44;;;;;;;6.70;4.50;;;;;;;14.77;100.00;96557.91;6119384;23;20436;-80
2022/10/10 11:41:25;;;;;;;7.10;4.77;;;;;;;14.45;100.00;96539.34;6108025;23;20384;-80
2022/10/10 11:44:07;;;;;;;8.07;5.00;;;;;;;14.15;100.00;96554.94;6107918;23;20743;-81
2022/10/10 11:47:05;;;;;;;8.00;5.60;;;;;;;14.07;100.00;96553.22;6133259;23;20396;-80
2022/10/10 11:49:43;;;;;;;4.90;4.43;;;;;;;13.77;100.00;96520.97;6132717;23;20467;-80
2022/10/10 11:52:22;;;;;;;10.90;5.23;;;;;;;14.05;100.00;96539.50;6108709;23;20487;-80
2022/10/10 11:55:09;;;;;;;5.10;4.70;;;;;;;15.14;100.00;96546.91;6112729;23;20396;-80
2022/10/10 11:57:45;;;;;;;5.40;4.10;;;;;;;15.80;100.00;96508.56;6138933;23;20432;-80